Time;durP1;ratioP1;P1;durP2;ratioP2;P2;SDS_P1;SDS_P2;PMS_P1;PMS_P2;Temp;Humidity;BMP_temperature;BMP_pressure;BME280_temperature;BME280_humidity;BME280_pressure;Samples;Min_cycle;Max_cycle;Signal;HPM_P1;HPM_P2
2022/04/30 00:00:19;;;;;;;4.90;3.47;;;;;;;10.11;95.40;96320.47;5031691;28;24503;-72
2022/04/30 00:02:45;;;;;;;5.97;3.85;;;;;;;10.06;95.64;96319.88;5031884;28;24439;-72
2022/04/30 00:05:12;;;;;;;4.13;3.40;;;;;;;9.95;96.23;96325.63;5031810;28;24482;-72
2022/04/30 00:07:39;;;;;;;6.15;3.85;;;;;;;9.88;96.85;96321.66;5031840;28;24424;-72
2022/04/30 00:10:07;;;;;;;4.75;3.85;;;;;;;9.71;98.37;96335.44;5031845;28;24424;-72
2022/04/30 00:12:34;;;;;;;4.88;3.58;;;;;;;9.65;99.25;96328.00;5031644;28;24459;-72
2022/04/30 00:15:00;;;;;;;4.90;3.80;;;;;;;9.68;99.38;96338.22;5031236;28;24444;-72
2022/04/30 00:17:27;;;;;;;4.83;3.40;;;;;;;9.77;99.31;96332.56;5031503;28;24439;-72
2022/04/30 00:19:53;;;;;;;4.97;3.78;;;;;;;9.79;97.93;96332.47;5031536;28;24415;-72
2022/04/30 00:22:20;;;;;;;4.32;3.92;;;;;;;9.71;98.46;96332.84;5030941;28;24465;-72
2022/04/30 00:24:48;;;;;;;7.30;4.97;;;;;;;9.79;97.15;96330.75;5031458;28;24427;-72
2022/04/30 00:27:15;;;;;;;7.13;4.55;;;;;;;9.86;96.44;96326.94;5031094;28;24432;-72
2022/04/30 00:29:42;;;;;;;7.03;5.32;;;;;;;9.92;96.83;96328.34;5031097;28;24442;-72
2022/04/30 00:32:08;;;;;;;7.43;5.60;;;;;;;9.99;96.64;96321.13;5031202;28;24792;-72
2022/04/30 00:34:35;;;;;;;10.73;8.48;;;;;;;10.15;97.83;96319.38;5031045;28;24443;-72
2022/04/30 00:37:03;;;;;;;15.40;9.52;;;;;;;9.96;100.00;96319.50;5031103;28;24431;-72
2022/04/30 00:39:30;;;;;;;19.60;10.77;;;;;;;9.97;100.00;96323.75;5031383;28;24423;-72
2022/04/30 00:41:58;;;;;;;14.82;11.30;;;;;;;9.94;100.00;96323.94;5030860;28;24828;-72
2022/04/30 00:44:25;;;;;;;21.25;12.70;;;;;;;9.78;100.00;96333.38;5031074;28;24994;-72
2022/04/30 00:46:52;;;;;;;15.65;13.25;;;;;;;9.90;100.00;96323.28;5031208;28;24613;-72
2022/04/30 00:49:18;;;;;;;21.17;14.40;;;;;;;9.78;100.00;96326.47;5030844;28;25092;-72
2022/04/30 00:51:45;;;;;;;18.05;13.65;;;;;;;9.89;100.00;96313.81;5030856;28;24434;-72
2022/04/30 00:54:13;;;;;;;21.35;14.18;;;;;;;9.75;100.00;96320.59;5030884;28;24448;-72
2022/04/30 00:56:46;;;;;;;23.95;14.80;;;;;;;9.82;100.00;96314.22;5030541;28;24824;-72
2022/04/30 00:59:17;;;;;;;22.93;16.43;;;;;;;9.93;100.00;96315.31;5031219;28;21204;-72
2022/04/30 01:01:45;;;;;;;22.55;16.05;;;;;;;9.86;100.00;96318.31;5030786;28;24511;-72
2022/04/30 01:04:12;;;;;;;18.50;15.82;;;;;;;9.96;100.00;96318.69;5031062;28;20748;-72
2022/04/30 01:06:50;;;;;;;23.20;15.73;;;;;;;9.91;100.00;96314.59;5030589;28;24427;-72
2022/04/30 01:09:20;;;;;;;19.90;15.45;;;;;;;9.94;100.00;96309.25;5031186;28;20647;-72
2022/04/30 01:11:49;;;;;;;22.25;16.25;;;;;;;10.02;100.00;96310.63;5028812;28;20765;-72
2022/04/30 01:14:18;;;;;;;21.67;16.20;;;;;;;9.92;100.00;96311.06;5028638;28;20868;-72
2022/04/30 01:16:46;;;;;;;23.70;16.55;;;;;;;10.01;100.00;96304.59;5028830;28;20859;-72
2022/04/30 01:19:19;;;;;;;18.83;15.13;;;;;;;9.88;100.00;96300.97;5029753;28;20802;-72
2022/04/30 01:21:50;;;;;;;20.50;14.98;;;;;;;9.84;100.00;96299.47;5028763;28;24837;-72
2022/04/30 01:24:21;;;;;;;18.13;14.07;;;;;;;9.86;100.00;96303.66;5029239;28;20856;-72
2022/04/30 01:26:51;;;;;;;22.98;16.13;;;;;;;9.78;100.00;96304.94;5030741;28;24477;-73
2022/04/30 01:29:18;;;;;;;24.77;15.35;;;;;;;9.94;100.00;96303.25;5030395;28;24430;-72
2022/04/30 01:37:23;;;;;;;19.48;14.82;;;;;;;9.78;100.00;96292.84;5034476;28;20921;-73
2022/04/30 01:39:53;;;;;;;17.75;14.18;;;;;;;9.83;100.00;96296.03;5034517;28;24531;-73
2022/04/30 01:42:20;;;;;;;21.10;14.27;;;;;;;9.79;100.00;96302.28;5034222;28;20859;-73
2022/04/30 01:44:47;;;;;;;15.65;12.50;;;;;;;9.88;100.00;96296.63;5034521;28;24805;-73
2022/04/30 01:47:15;;;;;;;17.63;12.30;;;;;;;9.76;100.00;96293.84;5034484;28;20811;-72
2022/04/30 01:49:42;;;;;;;17.77;12.90;;;;;;;9.74;100.00;96288.72;5034512;28;20764;-73
2022/04/30 01:52:10;;;;;;;14.70;11.80;;;;;;;9.85;100.00;96291.59;5034031;28;24469;-72
2022/04/30 01:54:37;;;;;;;12.57;10.63;;;;;;;10.02;100.00;96288.16;5033989;28;24490;-73
2022/04/30 01:57:05;;;;;;;12.68;10.55;;;;;;;9.85;100.00;96283.00;5033945;28;24423;-73
2022/04/30 01:59:32;;;;;;;16.05;10.68;;;;;;;9.92;100.00;96285.19;5034391;28;20830;-72
2022/04/30 02:02:00;;;;;;;12.35;9.65;;;;;;;9.92;100.00;96287.78;5033647;28;24423;-73
2022/04/30 02:04:27;;;;;;;11.02;9.48;;;;;;;9.77;100.00;96277.41;5033704;28;24447;-72
2022/04/30 02:06:55;;;;;;;12.80;9.70;;;;;;;9.96;100.00;96277.28;5033564;28;20795;-73
2022/04/30 02:09:22;;;;;;;12.77;9.63;;;;;;;9.79;100.00;96281.59;5033797;28;20769;-73
2022/04/30 02:11:49;;;;;;;11.43;9.40;;;;;;;9.74;100.00;96280.97;5033289;28;20756;-73
2022/04/30 02:14:18;;;;;;;14.00;10.15;;;;;;;9.76;100.00;96273.97;5033843;28;20767;-73
2022/04/30 02:16:46;;;;;;;12.65;9.50;;;;;;;9.69;100.00;96278.63;5033568;28;20806;-72
2022/04/30 02:19:15;;;;;;;16.67;11.00;;;;;;;9.63;100.00;96275.50;5033943;28;20802;-73
2022/04/30 02:21:42;;;;;;;18.45;10.75;;;;;;;9.65;100.00;96274.53;5033891;28;20845;-72
2022/04/30 02:24:09;;;;;;;20.70;11.65;;;;;;;9.55;100.00;96278.50;5033639;28;20760;-72
2022/04/30 02:26:35;;;;;;;15.50;11.73;;;;;;;9.60;100.00;96270.50;5033396;28;24428;-73
2022/04/30 02:29:01;;;;;;;16.02;13.07;;;;;;;9.52;100.00;96276.06;5033708;28;24471;-73
2022/04/30 02:31:29;;;;;;;20.45;13.60;;;;;;;9.57;100.00;96265.50;5033510;28;25007;-73
2022/04/30 02:33:57;;;;;;;18.02;14.00;;;;;;;9.52;100.00;96273.47;5033727;28;20759;-73
2022/04/30 02:36:26;;;;;;;20.40;13.60;;;;;;;9.59;100.00;96274.84;5033225;28;24542;-72
2022/04/30 02:38:54;;;;;;;21.05;15.02;;;;;;;9.55;100.00;96270.72;5033302;28;20802;-73
2022/04/30 02:41:21;;;;;;;14.98;13.38;;;;;;;9.66;100.00;96272.78;5033652;28;20826;-73
2022/04/30 02:43:48;;;;;;;20.88;14.30;;;;;;;9.57;100.00;96279.25;5033289;28;20756;-73
2022/04/30 02:46:15;;;;;;;19.50;14.68;;;;;;;9.55;100.00;96264.72;5033075;28;21310;-72
2022/04/30 02:48:43;;;;;;;18.13;15.23;;;;;;;9.46;100.00;96268.63;5033192;28;21294;-73
2022/04/30 02:51:10;;;;;;;15.68;13.90;;;;;;;9.52;100.00;96270.88;5033081;28;20757;-73
2022/04/30 02:53:37;;;;;;;16.13;13.50;;;;;;;9.50;100.00;96270.13;5033201;28;20823;-73
2022/04/30 02:56:04;;;;;;;19.23;14.33;;;;;;;9.38;100.00;96268.16;5033300;28;20796;-73
2022/04/30 03:01:14;;;;;;;21.92;15.32;;;;;;;9.35;100.00;96268.34;5033054;28;20761;-72
2022/04/30 03:03:41;;;;;;;18.10;14.38;;;;;;;9.33;100.00;96270.97;5032582;28;24499;-73
2022/04/30 03:06:09;;;;;;;22.42;16.55;;;;;;;9.31;100.00;96271.97;5032770;28;21201;-72
2022/04/30 03:08:35;;;;;;;23.17;16.25;;;;;;;9.26;100.00;96273.94;5033125;28;20872;-73
2022/04/30 03:11:03;;;;;;;21.38;16.38;;;;;;;9.21;100.00;96275.00;5032949;28;20803;-72
2022/04/30 03:13:31;;;;;;;30.83;18.67;;;;;;;9.15;100.00;96266.72;5032662;28;20788;-72
2022/04/30 03:21:41;;;;;;;29.30;19.30;;;;;;;9.15;100.00;96277.03;5032631;28;20851;-73
2022/04/30 03:21:44;;;;;;;22.57;20.17;;;;;;;9.16;100.00;96269.25;5032750;28;20713;-73
2022/04/30 03:24:11;;;;;;;29.60;22.15;;;;;;;9.14;100.00;96268.47;5032703;28;20781;-73
2022/04/30 03:26:38;;;;;;;25.65;22.67;;;;;;;9.16;100.00;96268.41;5032193;28;20759;-73
2022/04/30 03:29:04;;;;;;;27.03;22.73;;;;;;;9.15;100.00;96269.28;5032388;28;24500;-73
2022/04/30 03:31:31;;;;;;;26.80;22.27;;;;;;;9.09;100.00;96265.28;5032641;28;20759;-72
2022/04/30 03:33:57;;;;;;;27.90;22.10;;;;;;;9.06;100.00;96260.25;5032004;28;24949;-73
2022/04/30 03:36:24;;;;;;;29.00;23.75;;;;;;;9.07;100.00;96267.09;5032181;28;24455;-73
2022/04/30 03:38:52;;;;;;;30.63;22.25;;;;;;;8.99;100.00;96270.97;5032055;28;24490;-73
2022/04/30 03:41:19;;;;;;;25.60;21.05;;;;;;;8.87;100.00;96269.81;5032309;28;24432;-72
2022/04/30 03:43:45;;;;;;;27.87;21.83;;;;;;;9.13;100.00;96268.56;5032439;28;21224;-73
2022/04/30 03:46:12;;;;;;;31.55;24.20;;;;;;;8.87;100.00;96274.97;5032221;28;20759;-72
2022/04/30 03:48:38;;;;;;;25.90;22.98;;;;;;;8.95;100.00;96273.69;5032202;28;24420;-73
2022/04/30 03:51:05;;;;;;;31.13;22.30;;;;;;;8.84;100.00;96275.97;5032031;28;24456;-73
2022/04/30 03:53:32;;;;;;;29.15;22.45;;;;;;;8.83;100.00;96279.47;5031735;28;24482;-73
2022/04/30 03:56:00;;;;;;;28.52;23.85;;;;;;;8.70;100.00;96283.53;5031579;28;24458;-72
2022/04/30 03:58:27;;;;;;;27.55;22.95;;;;;;;8.54;100.00;96273.09;5031715;28;20887;-73
2022/04/30 04:00:54;;;;;;;30.52;23.85;;;;;;;8.60;100.00;96271.94;5031669;28;24542;-72
2022/04/30 04:03:20;;;;;;;27.85;22.75;;;;;;;8.68;100.00;96275.03;5031741;28;20755;-73
2022/04/30 04:05:48;;;;;;;24.92;22.27;;;;;;;8.69;100.00;96274.09;5031720;28;20751;-73
2022/04/30 04:08:15;;;;;;;23.55;20.98;;;;;;;8.69;100.00;96287.84;5031370;28;24960;-73
2022/04/30 04:10:42;;;;;;;26.52;22.63;;;;;;;8.69;100.00;96290.44;5031663;28;24419;-72
2022/04/30 04:18:51;;;;;;;30.38;24.27;;;;;;;8.54;100.00;96296.31;4969875;28;20721;-73
2022/04/30 04:21:18;;;;;;;27.30;23.58;;;;;;;8.48;100.00;96288.84;5016910;28;25193;-73
2022/04/30 04:26:28;;;;;;;35.63;22.98;;;;;;;8.46;100.00;96291.50;5031423;28;20803;-73
2022/04/30 04:28:56;;;;;;;27.58;23.92;;;;;;;8.45;100.00;96291.56;5030972;28;24419;-73
2022/04/30 04:31:23;;;;;;;25.60;23.02;;;;;;;8.48;100.00;96297.41;5031448;28;24794;-73
2022/04/30 04:33:49;;;;;;;29.73;23.20;;;;;;;8.53;100.00;96299.81;5031191;28;24511;-73
2022/04/30 04:36:16;;;;;;;25.77;23.03;;;;;;;8.58;100.00;96304.75;5031233;28;20870;-73
2022/04/30 04:38:43;;;;;;;26.98;22.35;;;;;;;8.64;100.00;96307.03;5031680;28;21196;-73
2022/04/30 04:41:09;;;;;;;28.27;23.50;;;;;;;8.77;100.00;96312.47;5031187;28;24773;-73
2022/04/30 04:43:36;;;;;;;25.13;21.83;;;;;;;8.77;100.00;96302.97;5030813;28;24416;-73
2022/04/30 04:46:04;;;;;;;27.00;23.45;;;;;;;8.58;100.00;96312.50;5031056;28;24423;-73
2022/04/30 04:48:31;;;;;;;26.05;22.60;;;;;;;8.58;100.00;96315.91;5031344;28;20788;-73
2022/04/30 04:50:57;;;;;;;26.45;23.52;;;;;;;8.58;100.00;96312.50;5030941;28;24473;-73
2022/04/30 04:53:24;;;;;;;25.75;22.10;;;;;;;8.74;100.00;96316.03;5031035;28;20813;-73
2022/04/30 04:55:50;;;;;;;24.20;21.70;;;;;;;8.83;100.00;96319.94;5030724;28;24450;-73
2022/04/30 04:58:17;;;;;;;23.75;21.30;;;;;;;8.79;100.00;96319.25;5030935;28;20763;-74
2022/04/30 05:00:43;;;;;;;23.63;19.60;;;;;;;8.75;100.00;96322.91;5030906;28;21126;-73
2022/04/30 05:03:12;;;;;;;22.27;19.95;;;;;;;8.75;100.00;96319.44;5030772;28;20847;-73
2022/04/30 05:05:39;;;;;;;24.02;20.17;;;;;;;8.65;100.00;96327.63;5030821;28;20843;-73
2022/04/30 05:08:06;;;;;;;26.25;21.27;;;;;;;8.60;100.00;96321.84;5030296;28;21356;-73
2022/04/30 05:10:33;;;;;;;22.58;20.15;;;;;;;8.63;100.00;96326.03;5030448;28;24949;-72
2022/04/30 05:12:59;;;;;;;26.40;19.93;;;;;;;8.68;100.00;96329.25;5030416;28;24983;-73
2022/04/30 05:15:25;;;;;;;22.38;19.75;;;;;;;8.74;100.00;96326.38;5030752;28;24432;-72
2022/04/30 05:17:52;;;;;;;23.83;19.80;;;;;;;8.70;100.00;96327.41;5030879;28;20761;-72
2022/04/30 05:20:20;;;;;;;23.20;19.52;;;;;;;8.74;100.00;96328.94;5030723;28;24965;-73
2022/04/30 05:22:46;;;;;;;21.73;19.53;;;;;;;8.77;100.00;96331.38;5030411;28;24436;-73
2022/04/30 05:25:13;;;;;;;21.73;18.50;;;;;;;8.70;100.00;96337.75;5030726;28;21119;-72
2022/04/30 05:27:40;;;;;;;21.63;19.50;;;;;;;8.61;100.00;96335.59;5030364;28;21427;-72
2022/04/30 05:30:08;;;;;;;21.20;19.17;;;;;;;8.70;100.00;96335.16;5030615;28;24499;-73
2022/04/30 05:32:34;;;;;;;19.80;17.80;;;;;;;8.69;100.00;96333.50;5030288;28;20794;-73
2022/04/30 05:35:01;;;;;;;20.40;18.25;;;;;;;8.78;100.00;96333.06;5030469;28;24424;-73
2022/04/30 05:37:29;;;;;;;20.73;16.73;;;;;;;8.83;100.00;96333.69;5017713;28;20794;-74
2022/04/30 05:39:55;;;;;;;18.40;16.48;;;;;;;8.92;100.00;96333.25;5010554;28;24783;-74
2022/04/30 05:42:21;;;;;;;18.35;16.40;;;;;;;9.01;100.00;96333.72;5010788;28;24423;-74
2022/04/30 05:44:48;;;;;;;20.33;16.58;;;;;;;9.07;100.00;96329.09;5010658;28;24829;-73
2022/04/30 05:47:14;;;;;;;17.38;15.65;;;;;;;9.12;100.00;96321.13;5010485;28;24424;-72
2022/04/30 05:49:41;;;;;;;18.83;16.35;;;;;;;9.01;100.00;96332.00;5010441;28;24416;-73
2022/04/30 05:52:07;;;;;;;18.13;16.23;;;;;;;9.00;100.00;96332.06;5010436;28;24423;-73
2022/04/30 05:54:35;;;;;;;18.38;16.45;;;;;;;8.92;100.00;96340.16;5010590;28;24420;-73
2022/04/30 05:57:02;;;;;;;18.58;16.60;;;;;;;8.91;100.00;96331.59;5010234;28;25069;-73
2022/04/30 05:59:28;;;;;;;21.92;17.00;;;;;;;8.86;100.00;96340.44;5010525;28;24416;-73
2022/04/30 06:01:54;;;;;;;19.45;16.63;;;;;;;8.85;100.00;96333.63;5010195;28;24642;-73
2022/04/30 06:04:21;;;;;;;19.00;17.00;;;;;;;8.70;100.00;96336.00;5010317;28;24423;-73
2022/04/30 06:06:48;;;;;;;20.48;16.88;;;;;;;8.64;100.00;96340.59;5010334;28;25021;-73
2022/04/30 06:09:14;;;;;;;17.45;15.50;;;;;;;8.71;100.00;96339.41;5010781;28;24451;-73
2022/04/30 06:11:42;;;;;;;18.27;16.27;;;;;;;8.83;100.00;96340.63;5010423;28;24520;-73
2022/04/30 06:14:09;;;;;;;32.33;26.95;;;;;;;8.83;100.00;96345.78;5010634;28;20800;-73
2022/04/30 06:16:35;;;;;;;31.63;23.98;;;;;;;8.80;100.00;96351.09;5010239;28;20780;-73
2022/04/30 06:19:02;;;;;;;20.63;18.20;;;;;;;8.78;100.00;96350.31;5006431;28;20823;-73
2022/04/30 06:21:28;;;;;;;19.05;17.02;;;;;;;8.70;100.00;96345.50;5013395;28;21212;-73
2022/04/30 06:23:55;;;;;;;19.33;17.35;;;;;;;8.70;100.00;96351.50;5013480;28;24428;-73
2022/04/30 06:26:21;;;;;;;19.13;17.15;;;;;;;8.69;100.00;96354.16;5013471;28;24428;-72
2022/04/30 06:28:49;;;;;;;20.17;17.83;;;;;;;8.75;100.00;96350.44;5013648;28;24966;-71
2022/04/30 06:31:15;;;;;;;20.25;18.13;;;;;;;8.66;100.00;96362.03;5013949;28;20793;-72
2022/04/30 06:33:42;;;;;;;19.88;17.77;;;;;;;8.62;100.00;96352.75;5012942;28;24424;-71
2022/04/30 06:36:08;;;;;;;19.67;17.17;;;;;;;8.65;100.00;96352.63;5013296;28;24464;-72
2022/04/30 06:38:35;;;;;;;20.13;17.77;;;;;;;8.63;100.00;96351.84;5013452;28;25041;-71
2022/04/30 06:41:01;;;;;;;18.88;16.92;;;;;;;8.69;100.00;96351.56;5013843;28;24755;-73
2022/04/30 06:43:28;;;;;;;18.45;16.55;;;;;;;8.72;100.00;96352.28;5013173;28;24471;-72
2022/04/30 06:45:55;;;;;;;19.27;17.48;;;;;;;8.61;100.00;96364.84;5013518;28;24420;-71
2022/04/30 06:48:22;;;;;;;19.95;17.95;;;;;;;8.64;100.00;96359.53;5013476;28;24428;-70
2022/04/30 06:50:48;;;;;;;35.60;30.40;;;;;;;8.58;100.00;96357.22;5013346;28;24424;-72
2022/04/30 06:58:50;;;;;;;20.88;18.00;;;;;;;8.66;100.00;96367.19;5014442;28;20756;-72
2022/04/30 07:01:38;;;;;;;20.02;17.98;;;;;;;8.65;100.00;96365.53;5013169;28;24420;-73
2022/04/30 07:04:07;;;;;;;18.35;16.52;;;;;;;8.99;100.00;96359.63;5013097;28;20813;-72
2022/04/30 07:06:34;;;;;;;18.15;16.35;;;;;;;8.99;100.00;96361.38;5013204;28;24428;-76
2022/04/30 07:09:02;;;;;;;20.80;16.50;;;;;;;9.36;100.00;96363.88;5013040;28;24973;-73
2022/04/30 07:11:28;;;;;;;18.55;16.83;;;;;;;9.53;100.00;96360.50;5013235;28;21224;-73
2022/04/30 07:13:55;;;;;;;18.67;16.75;;;;;;;9.46;100.00;96356.53;5012595;28;24428;-73
2022/04/30 07:16:23;;;;;;;18.52;16.73;;;;;;;9.39;100.00;96358.56;5012897;28;24444;-73
2022/04/30 07:18:50;;;;;;;19.05;17.15;;;;;;;9.21;100.00;96356.88;5013032;28;20796;-73
2022/04/30 07:21:16;;;;;;;19.10;16.13;;;;;;;9.19;100.00;96359.50;5012838;28;24474;-73
2022/04/30 07:23:44;;;;;;;17.20;15.57;;;;;;;9.42;100.00;96355.84;5012709;28;24829;-73
2022/04/30 07:26:10;;;;;;;17.33;15.57;;;;;;;9.29;100.00;96359.91;5013017;28;20825;-73
2022/04/30 07:28:37;;;;;;;16.73;15.13;;;;;;;9.23;100.00;96357.63;5012787;28;21319;-73
2022/04/30 07:31:03;;;;;;;17.25;15.10;;;;;;;9.40;100.00;96356.81;5012282;28;24467;-73
2022/04/30 07:33:32;;;;;;;15.77;14.23;;;;;;;9.37;100.00;96355.22;5012059;28;24427;-73
2022/04/30 07:35:59;;;;;;;20.25;14.98;;;;;;;9.25;100.00;96365.31;5012539;28;21163;-73
2022/04/30 07:38:25;;;;;;;15.30;13.88;;;;;;;9.28;100.00;96363.44;5012607;28;20770;-73
2022/04/30 07:40:52;;;;;;;14.90;13.50;;;;;;;9.37;100.00;96354.38;5012332;28;24428;-73
2022/04/30 07:43:18;;;;;;;14.82;13.32;;;;;;;9.43;100.00;96362.69;5012453;28;24448;-73
2022/04/30 07:45:45;;;;;;;15.65;14.02;;;;;;;9.49;100.00;96366.69;5012539;28;24420;-73
2022/04/30 07:48:11;;;;;;;15.10;13.70;;;;;;;9.35;100.00;96369.97;5012377;28;24432;-73
2022/04/30 07:50:41;;;;;;;16.35;14.73;;;;;;;9.06;100.00;96365.34;5012326;28;24432;-73
2022/04/30 07:53:08;;;;;;;16.50;14.98;;;;;;;9.05;100.00;96369.69;5012017;28;24428;-73
2022/04/30 07:55:35;;;;;;;15.48;13.90;;;;;;;9.02;100.00;96367.25;5012173;28;21110;-73
2022/04/30 07:58:02;;;;;;;15.07;13.38;;;;;;;9.21;100.00;96372.38;5011893;28;25013;-73
2022/04/30 08:00:29;;;;;;;15.18;13.85;;;;;;;9.27;100.00;96376.41;5012128;28;24508;-73
2022/04/30 08:02:56;;;;;;;16.90;14.52;;;;;;;9.18;100.00;96375.09;5011981;28;20757;-73
2022/04/30 08:05:23;;;;;;;14.52;12.98;;;;;;;9.29;100.00;96369.44;5012025;28;24431;-73
2022/04/30 08:07:50;;;;;;;16.13;13.85;;;;;;;9.38;100.00;96374.13;5011955;28;20758;-73
2022/04/30 08:10:18;;;;;;;14.65;13.35;;;;;;;9.32;100.00;96379.63;5012692;28;20763;-73
2022/04/30 08:12:45;;;;;;;15.75;14.10;;;;;;;9.25;100.00;96383.41;5011896;28;21300;-73
2022/04/30 08:15:12;;;;;;;16.17;13.85;;;;;;;9.22;100.00;96384.38;5011618;28;24973;-73
2022/04/30 08:17:39;;;;;;;17.30;13.93;;;;;;;9.30;100.00;96378.84;5011656;28;24451;-73
2022/04/30 08:20:07;;;;;;;15.90;13.68;;;;;;;9.08;100.00;96385.03;5011610;28;24868;-73
2022/04/30 08:22:33;;;;;;;16.58;13.95;;;;;;;9.08;100.00;96381.63;5011305;28;20775;-73
2022/04/30 08:25:02;;;;;;;18.33;14.50;;;;;;;9.05;100.00;96379.16;5011821;28;24424;-73
2022/04/30 08:27:29;;;;;;;13.50;12.10;;;;;;;9.03;100.00;96381.00;5011610;28;24424;-73
2022/04/30 08:29:55;;;;;;;14.75;13.20;;;;;;;9.14;100.00;96382.16;5011719;28;21109;-73
2022/04/30 08:32:24;;;;;;;13.73;12.48;;;;;;;9.38;100.00;96382.75;5011417;28;24483;-73
2022/04/30 08:34:51;;;;;;;12.68;11.45;;;;;;;9.74;100.00;96381.84;5011458;28;24416;-73
2022/04/30 08:37:17;;;;;;;13.13;11.65;;;;;;;9.80;100.00;96391.91;5011491;28;21413;-73
2022/04/30 08:39:44;;;;;;;11.90;9.65;;;;;;;9.91;100.00;96384.44;5011559;28;24475;-73
2022/04/30 08:42:13;;;;;;;10.55;9.45;;;;;;;9.87;100.00;96384.69;5011332;28;24937;-73
2022/04/30 08:44:40;;;;;;;10.48;9.40;;;;;;;9.78;100.00;96385.97;5011300;28;24463;-73
2022/04/30 08:47:10;;;;;;;10.00;9.00;;;;;;;9.72;100.00;96388.88;5011133;28;24424;-73
2022/04/30 08:49:40;;;;;;;9.95;8.90;;;;;;;9.69;100.00;96383.84;5011235;28;20735;-73
2022/04/30 08:52:07;;;;;;;11.35;9.27;;;;;;;9.65;100.00;96382.31;5011147;28;24830;-73
2022/04/30 08:54:34;;;;;;;9.60;8.70;;;;;;;9.77;100.00;96384.28;5011244;28;24432;-73
2022/04/30 08:57:00;;;;;;;10.02;8.95;;;;;;;9.85;100.00;96391.66;5011047;28;24448;-73
2022/04/30 08:59:30;;;;;;;9.30;8.50;;;;;;;9.87;100.00;96382.09;5011042;28;24431;-73
2022/04/30 09:01:58;;;;;;;9.45;8.60;;;;;;;9.94;100.00;96381.72;5010847;28;24425;-73
2022/04/30 09:04:25;;;;;;;9.45;8.63;;;;;;;10.05;100.00;96380.31;5011072;28;20755;-73
2022/04/30 09:06:55;;;;;;;9.80;8.90;;;;;;;9.97;100.00;96388.44;5010870;28;24958;-73
2022/04/30 09:09:23;;;;;;;9.38;8.38;;;;;;;10.00;100.00;96384.88;5010923;28;24474;-73
2022/04/30 09:11:50;;;;;;;9.50;8.65;;;;;;;10.33;100.00;96380.59;5010767;28;21338;-73
2022/04/30 09:14:23;;;;;;;9.65;8.65;;;;;;;10.06;100.00;96382.00;5010954;28;20795;-73
2022/04/30 09:17:01;;;;;;;9.70;8.30;;;;;;;10.08;100.00;96385.31;5010913;28;21061;-73
2022/04/30 09:19:27;;;;;;;8.88;7.97;;;;;;;10.03;100.00;96382.16;5010980;28;24479;-73
2022/04/30 09:21:54;;;;;;;7.57;6.90;;;;;;;9.92;100.00;96388.69;5010648;28;24527;-72
2022/04/30 09:24:20;;;;;;;7.80;7.03;;;;;;;9.98;100.00;96387.56;5011004;28;24417;-72
2022/04/30 09:26:47;;;;;;;7.72;7.03;;;;;;;10.09;100.00;96389.63;5010360;28;24432;-72
2022/04/30 09:29:21;;;;;;;7.93;7.07;;;;;;;10.13;100.00;96383.38;5010606;28;20840;-72
2022/04/30 09:31:52;;;;;;;8.15;7.35;;;;;;;10.07;100.00;96389.66;5010680;28;20791;-73
2022/04/30 09:39:48;;;;;;;7.93;7.18;;;;;;;9.60;100.00;96381.69;5010695;28;20745;-72
2022/04/30 09:42:15;;;;;;;7.82;7.13;;;;;;;9.77;100.00;96386.03;5010460;28;24435;-72
2022/04/30 09:44:41;;;;;;;7.22;6.63;;;;;;;9.62;100.00;96392.81;5010549;28;24420;-73
2022/04/30 09:47:10;;;;;;;8.30;7.47;;;;;;;9.60;100.00;96379.09;5010562;28;24423;-72
2022/04/30 09:55:06;;;;;;;8.05;7.03;;;;;;;9.71;100.00;96371.66;5011715;28;20781;-73
2022/04/30 09:57:36;;;;;;;9.27;7.30;;;;;;;9.64;100.00;96380.63;5014310;28;21340;-73
2022/04/30 10:00:04;;;;;;;8.10;7.30;;;;;;;9.76;100.00;96374.88;5014332;28;20739;-72
2022/04/30 10:02:32;;;;;;;7.75;6.97;;;;;;;9.72;100.00;96377.69;5013744;28;20808;-73
2022/04/30 10:05:02;;;;;;;7.50;6.65;;;;;;;9.68;100.00;96374.41;5014458;28;21139;-73
2022/04/30 10:07:33;;;;;;;6.65;6.05;;;;;;;9.68;100.00;96374.41;5014553;28;24425;-72
2022/04/30 10:10:13;;;;;;;7.57;6.28;;;;;;;9.67;100.00;96375.31;5014287;28;20800;-72
2022/04/30 10:12:43;;;;;;;6.55;5.95;;;;;;;9.45;100.00;96370.34;5013937;28;24428;-73
2022/04/30 10:15:18;;;;;;;6.75;6.03;;;;;;;9.64;100.00;96375.44;5013583;28;24822;-72
2022/04/30 10:17:48;;;;;;;7.07;6.45;;;;;;;9.57;100.00;96374.09;5014258;28;20830;-72
2022/04/30 10:20:23;;;;;;;7.15;6.45;;;;;;;9.45;100.00;96381.56;5014135;28;24452;-72
2022/04/30 10:22:50;;;;;;;6.88;6.10;;;;;;;9.51;100.00;96372.66;5013804;28;24423;-73
2022/04/30 10:25:18;;;;;;;6.33;5.73;;;;;;;9.65;100.00;96372.81;5014233;28;25029;-73
2022/04/30 10:27:46;;;;;;;6.82;6.20;;;;;;;9.73;100.00;96376.75;5013927;28;20808;-73
2022/04/30 10:30:24;;;;;;;6.93;6.28;;;;;;;9.61;100.00;96380.81;5014171;28;21133;-72
2022/04/30 10:33:01;;;;;;;6.70;6.10;;;;;;;9.63;100.00;96371.19;5014003;28;20773;-73
2022/04/30 10:35:35;;;;;;;7.10;6.40;;;;;;;9.72;100.00;96367.34;5013741;28;21099;-72
2022/04/30 10:38:17;;;;;;;7.18;6.47;;;;;;;9.79;100.00;96369.53;5013415;28;24530;-73
2022/04/30 10:40:47;;;;;;;6.97;6.38;;;;;;;9.73;100.00;96369.84;5013788;28;25076;-73
2022/04/30 10:43:15;;;;;;;7.53;6.80;;;;;;;9.59;100.00;96375.69;5013558;28;20789;-72
2022/04/30 10:45:41;;;;;;;7.63;7.03;;;;;;;9.72;100.00;96377.69;5013530;28;24516;-73
2022/04/30 10:48:10;;;;;;;8.07;7.38;;;;;;;9.67;100.00;96377.88;5013389;28;24412;-73
2022/04/30 10:50:37;;;;;;;9.07;8.00;;;;;;;9.57;100.00;96379.28;5013691;28;20746;-73
2022/04/30 10:53:03;;;;;;;9.63;8.23;;;;;;;9.37;100.00;96380.22;5013432;28;24509;-72
2022/04/30 10:55:31;;;;;;;9.48;8.70;;;;;;;9.36;100.00;96374.22;5013360;28;24782;-72
2022/04/30 10:57:58;;;;;;;9.98;9.00;;;;;;;9.41;100.00;96379.16;5013103;28;24455;-73
2022/04/30 11:00:26;;;;;;;9.73;8.77;;;;;;;9.71;100.00;96376.81;5013394;28;20766;-73
2022/04/30 11:02:52;;;;;;;8.60;7.77;;;;;;;9.65;100.00;96374.56;5013175;28;20965;-73
2022/04/30 11:05:22;;;;;;;8.23;7.43;;;;;;;9.75;100.00;96374.94;5013246;28;24423;-73
2022/04/30 11:07:49;;;;;;;8.65;7.82;;;;;;;9.94;100.00;96376.53;5011817;28;20720;-72
2022/04/30 11:10:16;;;;;;;7.72;7.03;;;;;;;10.33;100.00;96366.81;5013229;28;20836;-73
2022/04/30 11:12:43;;;;;;;6.80;6.10;;;;;;;10.22;100.00;96362.16;5012760;28;24980;-72
2022/04/30 11:15:11;;;;;;;7.63;6.90;;;;;;;10.79;100.00;96362.63;5012829;28;24433;-73
2022/04/30 11:17:43;;;;;;;6.95;6.28;;;;;;;11.09;100.00;96354.09;5012691;28;24474;-73
2022/04/30 11:20:10;;;;;;;6.45;5.80;;;;;;;10.80;100.00;96351.34;5013117;28;24546;-72
2022/04/30 11:22:38;;;;;;;6.43;5.65;;;;;;;11.06;100.00;96356.84;5012595;28;24981;-72
2022/04/30 11:25:05;;;;;;;6.10;5.25;;;;;;;10.75;100.00;96349.91;5012799;28;24495;-72
2022/04/30 11:27:32;;;;;;;7.00;5.68;;;;;;;10.37;100.00;96356.22;5012593;28;24429;-73
2022/04/30 11:29:58;;;;;;;7.70;5.87;;;;;;;10.23;100.00;96352.63;5012513;28;24867;-73
2022/04/30 11:32:27;;;;;;;8.63;5.88;;;;;;;10.17;100.00;96354.66;5005030;28;24436;-73
2022/04/30 11:34:55;;;;;;;7.50;5.63;;;;;;;10.30;100.00;96347.09;5010701;28;24499;-73
2022/04/30 11:37:22;;;;;;;6.93;5.97;;;;;;;10.33;100.00;96346.94;5012322;28;21161;-73
2022/04/30 11:39:50;;;;;;;6.18;5.43;;;;;;;10.35;100.00;96345.13;5012284;28;24981;-73
2022/04/30 11:42:16;;;;;;;6.28;5.68;;;;;;;10.48;100.00;96349.63;5014068;28;24435;-73
2022/04/30 11:44:44;;;;;;;6.78;6.18;;;;;;;10.44;100.00;96345.53;5018886;28;24443;-73
2022/04/30 11:47:11;;;;;;;6.93;5.82;;;;;;;10.38;100.00;96344.97;5020599;28;24436;-72
2022/04/30 11:49:39;;;;;;;7.05;5.72;;;;;;;10.33;100.00;96352.13;5019320;28;21355;-73
2022/04/30 11:52:07;;;;;;;9.13;6.78;;;;;;;10.28;100.00;96346.34;5017300;28;24428;-72
2022/04/30 11:54:38;;;;;;;9.60;6.65;;;;;;;10.41;100.00;96349.94;5020628;28;21317;-72
2022/04/30 11:57:06;;;;;;;6.53;5.93;;;;;;;10.37;100.00;96348.44;5021473;28;20816;-72
2022/04/30 11:59:35;;;;;;;23.33;14.88;;;;;;;10.44;100.00;96348.97;5020982;28;20808;-73